sensor_id;sensor_type;location;lat;lon;timestamp;P1;durP1;ratioP1;P2;durP2;ratioP2
70800;SDS011;59616;52.170;5.386;2022-10-31T00:03:43;12.45;;;5.47;;
70800;SDS011;59616;52.170;5.386;2022-10-31T00:06:10;11.27;;;4.63;;
70800;SDS011;59616;52.170;5.386;2022-10-31T00:08:37;12.75;;;4.72;;
70800;SDS011;59616;52.170;5.386;2022-10-31T00:11:08;14.95;;;4.90;;
70800;SDS011;59616;52.170;5.386;2022-10-31T00:13:35;15.85;;;6.38;;
70800;SDS011;59616;52.170;5.386;2022-10-31T00:16:02;16.88;;;5.28;;
70800;SDS011;59616;52.170;5.386;2022-10-31T00:18:29;13.77;;;5.25;;
70800;SDS011;59616;52.170;5.386;2022-10-31T00:21:00;12.65;;;5.05;;
70800;SDS011;59616;52.170;5.386;2022-10-31T00:23:27;12.32;;;5.10;;
70800;SDS011;59616;52.170;5.386;2022-10-31T00:25:59;13.60;;;5.80;;
70800;SDS011;59616;52.170;5.386;2022-10-31T00:28:27;18.40;;;5.95;;
70800;SDS011;59616;52.170;5.386;2022-10-31T00:31:00;13.52;;;5.13;;
70800;SDS011;59616;52.170;5.386;2022-10-31T00:33:27;15.85;;;5.70;;
70800;SDS011;59616;52.170;5.386;2022-10-31T00:35:54;15.57;;;5.88;;
70800;SDS011;59616;52.170;5.386;2022-10-31T00:38:22;15.15;;;5.72;;
70800;SDS011;59616;52.170;5.386;2022-10-31T00:40:50;14.48;;;5.70;;
70800;SDS011;59616;52.170;5.386;2022-10-31T00:43:17;17.65;;;6.03;;
70800;SDS011;59616;52.170;5.386;2022-10-31T00:45:44;18.02;;;6.18;;
70800;SDS011;59616;52.170;5.386;2022-10-31T00:48:11;18.17;;;6.35;;
70800;SDS011;59616;52.170;5.386;2022-10-31T00:50:39;17.48;;;6.53;;
70800;SDS011;59616;52.170;5.386;2022-10-31T00:53:06;16.70;;;6.03;;
70800;SDS011;59616;52.170;5.386;2022-10-31T00:55:33;15.48;;;5.97;;
70800;SDS011;59616;52.170;5.386;2022-10-31T00:58:00;18.05;;;6.95;;
70800;SDS011;59616;52.170;5.386;2022-10-31T01:00:28;14.20;;;5.93;;
70800;SDS011;59616;52.170;5.386;2022-10-31T01:02:55;14.40;;;6.07;;
70800;SDS011;59616;52.170;5.386;2022-10-31T01:05:23;16.70;;;6.55;;
70800;SDS011;59616;52.170;5.386;2022-10-31T01:07:50;17.75;;;6.32;;
70800;SDS011;59616;52.170;5.386;2022-10-31T01:10:17;14.25;;;5.72;;
70800;SDS011;59616;52.170;5.386;2022-10-31T01:12:46;14.77;;;6.63;;
70800;SDS011;59616;52.170;5.386;2022-10-31T01:15:15;16.60;;;6.38;;
70800;SDS011;59616;52.170;5.386;2022-10-31T01:17:42;17.50;;;6.03;;
70800;SDS011;59616;52.170;5.386;2022-10-31T01:20:10;16.65;;;6.57;;
70800;SDS011;59616;52.170;5.386;2022-10-31T01:22:38;16.20;;;6.13;;
70800;SDS011;59616;52.170;5.386;2022-10-31T01:25:05;16.70;;;6.22;;
70800;SDS011;59616;52.170;5.386;2022-10-31T01:27:32;16.95;;;6.32;;
70800;SDS011;59616;52.170;5.386;2022-10-31T01:30:00;18.05;;;6.88;;
70800;SDS011;59616;52.170;5.386;2022-10-31T01:32:27;19.77;;;7.80;;
70800;SDS011;59616;52.170;5.386;2022-10-31T01:34:58;16.63;;;6.72;;
70800;SDS011;59616;52.170;5.386;2022-10-31T01:37:25;16.45;;;6.50;;
70800;SDS011;59616;52.170;5.386;2022-10-31T01:39:52;15.80;;;6.60;;
70800;SDS011;59616;52.170;5.386;2022-10-31T01:42:19;16.98;;;6.25;;
70800;SDS011;59616;52.170;5.386;2022-10-31T01:44:48;15.23;;;6.18;;
70800;SDS011;59616;52.170;5.386;2022-10-31T01:47:17;16.27;;;6.03;;
70800;SDS011;59616;52.170;5.386;2022-10-31T01:49:48;15.90;;;6.13;;
70800;SDS011;59616;52.170;5.386;2022-10-31T01:52:20;17.95;;;6.40;;
70800;SDS011;59616;52.170;5.386;2022-10-31T01:54:50;17.42;;;6.45;;
70800;SDS011;59616;52.170;5.386;2022-10-31T01:57:21;17.80;;;6.93;;
70800;SDS011;59616;52.170;5.386;2022-10-31T01:59:51;14.90;;;5.47;;
70800;SDS011;59616;52.170;5.386;2022-10-31T02:02:22;14.20;;;5.65;;
70800;SDS011;59616;52.170;5.386;2022-10-31T02:04:50;17.33;;;5.75;;
70800;SDS011;59616;52.170;5.386;2022-10-31T02:07:20;17.33;;;6.07;;
70800;SDS011;59616;52.170;5.386;2022-10-31T02:09:49;12.65;;;5.80;;
70800;SDS011;59616;52.170;5.386;2022-10-31T02:12:16;14.40;;;5.40;;
70800;SDS011;59616;52.170;5.386;2022-10-31T02:14:44;14.93;;;6.13;;
70800;SDS011;59616;52.170;5.386;2022-10-31T02:17:11;13.40;;;5.82;;
70800;SDS011;59616;52.170;5.386;2022-10-31T02:24:43;13.65;;;5.45;;
70800;SDS011;59616;52.170;5.386;2022-10-31T02:34:58;13.55;;;5.82;;
70800;SDS011;59616;52.170;5.386;2022-10-31T02:43:20;14.60;;;5.43;;
70800;SDS011;59616;52.170;5.386;2022-10-31T02:45:55;15.70;;;5.60;;
70800;SDS011;59616;52.170;5.386;2022-10-31T02:48:28;16.33;;;5.88;;
70800;SDS011;59616;52.170;5.386;2022-10-31T02:50:57;13.68;;;5.40;;
70800;SDS011;59616;52.170;5.386;2022-10-31T02:53:26;14.50;;;5.90;;
70800;SDS011;59616;52.170;5.386;2022-10-31T02:55:57;13.38;;;5.55;;
70800;SDS011;59616;52.170;5.386;2022-10-31T02:58:26;11.43;;;4.43;;
70800;SDS011;59616;52.170;5.386;2022-10-31T03:03:29;13.05;;;4.97;;
70800;SDS011;59616;52.170;5.386;2022-10-31T03:06:02;13.07;;;4.85;;
70800;SDS011;59616;52.170;5.386;2022-10-31T03:08:34;14.35;;;5.38;;
70800;SDS011;59616;52.170;5.386;2022-10-31T03:11:03;13.43;;;4.57;;
70800;SDS011;59616;52.170;5.386;2022-10-31T03:13:39;13.85;;;5.07;;
70800;SDS011;59616;52.170;5.386;2022-10-31T03:16:15;14.75;;;5.88;;
70800;SDS011;59616;52.170;5.386;2022-10-31T03:24:01;10.95;;;4.45;;
70800;SDS011;59616;52.170;5.386;2022-10-31T03:26:29;14.00;;;5.53;;
70800;SDS011;59616;52.170;5.386;2022-10-31T03:28:57;14.52;;;5.28;;
70800;SDS011;59616;52.170;5.386;2022-10-31T03:31:28;15.10;;;5.10;;
70800;SDS011;59616;52.170;5.386;2022-10-31T03:33:57;12.70;;;5.10;;
70800;SDS011;59616;52.170;5.386;2022-10-31T03:36:29;17.00;;;5.60;;
70800;SDS011;59616;52.170;5.386;2022-10-31T03:38:57;11.93;;;5.00;;
70800;SDS011;59616;52.170;5.386;2022-10-31T03:41:25;13.65;;;4.93;;
70800;SDS011;59616;52.170;5.386;2022-10-31T03:43:56;13.63;;;5.13;;
70800;SDS011;59616;52.170;5.386;2022-10-31T03:46:25;12.77;;;5.45;;
70800;SDS011;59616;52.170;5.386;2022-10-31T03:48:54;13.48;;;4.95;;
70800;SDS011;59616;52.170;5.386;2022-10-31T03:51:26;10.55;;;4.43;;
70800;SDS011;59616;52.170;5.386;2022-10-31T03:56:49;13.48;;;4.78;;
70800;SDS011;59616;52.170;5.386;2022-10-31T03:59:25;13.10;;;5.00;;
70800;SDS011;59616;52.170;5.386;2022-10-31T04:01:59;12.75;;;4.53;;
70800;SDS011;59616;52.170;5.386;2022-10-31T04:04:28;16.48;;;5.28;;
70800;SDS011;59616;52.170;5.386;2022-10-31T04:06:56;16.92;;;5.47;;
70800;SDS011;59616;52.170;5.386;2022-10-31T04:09:25;13.82;;;4.97;;
70800;SDS011;59616;52.170;5.386;2022-10-31T04:11:54;13.30;;;5.10;;
70800;SDS011;59616;52.170;5.386;2022-10-31T04:14:33;11.48;;;4.57;;
70800;SDS011;59616;52.170;5.386;2022-10-31T04:17:02;13.10;;;4.75;;
70800;SDS011;59616;52.170;5.386;2022-10-31T04:19:34;13.52;;;4.88;;
70800;SDS011;59616;52.170;5.386;2022-10-31T04:22:01;13.13;;;4.82;;
70800;SDS011;59616;52.170;5.386;2022-10-31T04:24:29;12.40;;;4.50;;
70800;SDS011;59616;52.170;5.386;2022-10-31T04:26:57;13.20;;;4.70;;
70800;SDS011;59616;52.170;5.386;2022-10-31T04:29:25;13.30;;;4.97;;
70800;SDS011;59616;52.170;5.386;2022-10-31T04:31:52;11.23;;;4.68;;
70800;SDS011;59616;52.170;5.386;2022-10-31T04:34:19;13.60;;;4.88;;
70800;SDS011;59616;52.170;5.386;2022-10-31T04:36:46;15.65;;;4.85;;
70800;SDS011;59616;52.170;5.386;2022-10-31T04:39:16;14.65;;;4.75;;
70800;SDS011;59616;52.170;5.386;2022-10-31T04:42:25;14.70;;;4.90;;
70800;SDS011;59616;52.170;5.386;2022-10-31T04:44:52;12.15;;;5.07;;
70800;SDS011;59616;52.170;5.386;2022-10-31T04:47:19;12.52;;;4.95;;
70800;SDS011;59616;52.170;5.386;2022-10-31T04:49:46;17.20;;;4.70;;
70800;SDS011;59616;52.170;5.386;2022-10-31T04:52:13;12.73;;;4.50;;
70800;SDS011;59616;52.170;5.386;2022-10-31T04:54:41;13.98;;;5.20;;
70800;SDS011;59616;52.170;5.386;2022-10-31T04:57:27;12.20;;;5.15;;
70800;SDS011;59616;52.170;5.386;2022-10-31T04:59:54;14.07;;;5.40;;
70800;SDS011;59616;52.170;5.386;2022-10-31T05:02:22;14.95;;;5.10;;
70800;SDS011;59616;52.170;5.386;2022-10-31T05:04:55;13.27;;;5.07;;
70800;SDS011;59616;52.170;5.386;2022-10-31T05:07:22;12.15;;;4.85;;
70800;SDS011;59616;52.170;5.386;2022-10-31T05:09:49;12.85;;;4.88;;
70800;SDS011;59616;52.170;5.386;2022-10-31T05:12:18;10.82;;;4.57;;
70800;SDS011;59616;52.170;5.386;2022-10-31T05:15:08;14.15;;;4.78;;
70800;SDS011;59616;52.170;5.386;2022-10-31T05:20:40;12.38;;;5.13;;
70800;SDS011;59616;52.170;5.386;2022-10-31T05:23:14;13.85;;;5.22;;
70800;SDS011;59616;52.170;5.386;2022-10-31T05:25:41;11.13;;;4.97;;
70800;SDS011;59616;52.170;5.386;2022-10-31T05:28:08;12.52;;;5.35;;
70800;SDS011;59616;52.170;5.386;2022-10-31T05:30:36;15.40;;;5.40;;
70800;SDS011;59616;52.170;5.386;2022-10-31T05:33:07;14.57;;;5.60;;
70800;SDS011;59616;52.170;5.386;2022-10-31T05:36:07;12.00;;;5.00;;
70800;SDS011;59616;52.170;5.386;2022-10-31T05:38:41;15.10;;;5.20;;
70800;SDS011;59616;52.170;5.386;2022-10-31T05:41:19;17.77;;;5.30;;
70800;SDS011;59616;52.170;5.386;2022-10-31T05:43:47;13.35;;;5.20;;
70800;SDS011;59616;52.170;5.386;2022-10-31T05:46:17;12.38;;;5.00;;
70800;SDS011;59616;52.170;5.386;2022-10-31T05:49:04;15.93;;;5.65;;
70800;SDS011;59616;52.170;5.386;2022-10-31T05:51:50;20.05;;;7.25;;
70800;SDS011;59616;52.170;5.386;2022-10-31T05:54:19;22.20;;;6.32;;
70800;SDS011;59616;52.170;5.386;2022-10-31T05:56:46;19.40;;;7.15;;
70800;SDS011;59616;52.170;5.386;2022-10-31T05:59:13;22.85;;;7.20;;
70800;SDS011;59616;52.170;5.386;2022-10-31T06:01:40;25.38;;;6.88;;
70800;SDS011;59616;52.170;5.386;2022-10-31T06:04:23;36.28;;;8.77;;
70800;SDS011;59616;52.170;5.386;2022-10-31T06:06:50;37.22;;;7.75;;
70800;SDS011;59616;52.170;5.386;2022-10-31T06:09:17;27.00;;;7.15;;
70800;SDS011;59616;52.170;5.386;2022-10-31T06:11:44;29.05;;;8.00;;
70800;SDS011;59616;52.170;5.386;2022-10-31T06:14:20;41.55;;;7.82;;
70800;SDS011;59616;52.170;5.386;2022-10-31T06:16:56;35.25;;;7.25;;
70800;SDS011;59616;52.170;5.386;2022-10-31T06:19:41;45.83;;;8.32;;
70800;SDS011;59616;52.170;5.386;2022-10-31T06:22:11;58.08;;;8.45;;
70800;SDS011;59616;52.170;5.386;2022-10-31T06:24:38;38.97;;;8.85;;
70800;SDS011;59616;52.170;5.386;2022-10-31T06:27:17;28.75;;;7.70;;
70800;SDS011;59616;52.170;5.386;2022-10-31T06:29:44;30.45;;;8.75;;
70800;SDS011;59616;52.170;5.386;2022-10-31T06:32:20;28.45;;;7.95;;
70800;SDS011;59616;52.170;5.386;2022-10-31T06:34:47;40.78;;;8.85;;
70800;SDS011;59616;52.170;5.386;2022-10-31T06:37:14;29.70;;;7.90;;
70800;SDS011;59616;52.170;5.386;2022-10-31T06:39:45;45.00;;;8.95;;
70800;SDS011;59616;52.170;5.386;2022-10-31T06:42:15;27.75;;;8.63;;
70800;SDS011;59616;52.170;5.386;2022-10-31T06:44:42;33.95;;;8.15;;
70800;SDS011;59616;52.170;5.386;2022-10-31T06:47:28;38.28;;;8.32;;
70800;SDS011;59616;52.170;5.386;2022-10-31T06:50:03;39.63;;;8.23;;
70800;SDS011;59616;52.170;5.386;2022-10-31T06:52:30;59.85;;;9.15;;
70800;SDS011;59616;52.170;5.386;2022-10-31T06:54:57;48.15;;;8.65;;
70800;SDS011;59616;52.170;5.386;2022-10-31T06:57:27;59.28;;;8.65;;
70800;SDS011;59616;52.170;5.386;2022-10-31T06:59:55;45.67;;;8.65;;
70800;SDS011;59616;52.170;5.386;2022-10-31T07:02:41;55.67;;;9.60;;
70800;SDS011;59616;52.170;5.386;2022-10-31T07:05:08;94.18;;;10.25;;
70800;SDS011;59616;52.170;5.386;2022-10-31T07:07:35;56.28;;;9.93;;
70800;SDS011;59616;52.170;5.386;2022-10-31T07:10:03;39.47;;;9.20;;
70800;SDS011;59616;52.170;5.386;2022-10-31T07:12:43;29.23;;;9.00;;
70800;SDS011;59616;52.170;5.386;2022-10-31T07:15:10;26.83;;;8.18;;
70800;SDS011;59616;52.170;5.386;2022-10-31T07:17:37;33.75;;;8.05;;
70800;SDS011;59616;52.170;5.386;2022-10-31T07:20:07;32.08;;;8.13;;
70800;SDS011;59616;52.170;5.386;2022-10-31T07:22:36;26.75;;;8.05;;
70800;SDS011;59616;52.170;5.386;2022-10-31T07:25:06;26.15;;;7.38;;
70800;SDS011;59616;52.170;5.386;2022-10-31T07:30:18;18.58;;;7.50;;
70800;SDS011;59616;52.170;5.386;2022-10-31T07:32:50;20.08;;;7.80;;
70800;SDS011;59616;52.170;5.386;2022-10-31T07:35:21;17.50;;;7.65;;
70800;SDS011;59616;52.170;5.386;2022-10-31T07:37:54;20.63;;;7.13;;
70800;SDS011;59616;52.170;5.386;2022-10-31T07:40:22;19.38;;;8.20;;
70800;SDS011;59616;52.170;5.386;2022-10-31T07:42:52;19.48;;;7.93;;
70800;SDS011;59616;52.170;5.386;2022-10-31T07:45:55;22.17;;;8.35;;
70800;SDS011;59616;52.170;5.386;2022-10-31T07:48:41;22.92;;;8.63;;
70800;SDS011;59616;52.170;5.386;2022-10-31T07:51:27;21.08;;;8.25;;
70800;SDS011;59616;52.170;5.386;2022-10-31T07:54:14;20.17;;;8.38;;
70800;SDS011;59616;52.170;5.386;2022-10-31T07:56:41;22.70;;;8.38;;
70800;SDS011;59616;52.170;5.386;2022-10-31T07:59:08;23.23;;;8.35;;
70800;SDS011;59616;52.170;5.386;2022-10-31T08:01:35;23.80;;;8.65;;
70800;SDS011;59616;52.170;5.386;2022-10-31T08:04:21;20.23;;;8.50;;
70800;SDS011;59616;52.170;5.386;2022-10-31T08:07:07;19.42;;;8.38;;
70800;SDS011;59616;52.170;5.386;2022-10-31T08:09:36;21.25;;;8.50;;
70800;SDS011;59616;52.170;5.386;2022-10-31T08:12:14;19.98;;;9.45;;
70800;SDS011;59616;52.170;5.386;2022-10-31T08:14:41;20.45;;;9.32;;
70800;SDS011;59616;52.170;5.386;2022-10-31T08:17:10;19.60;;;8.98;;
70800;SDS011;59616;52.170;5.386;2022-10-31T08:19:44;20.90;;;9.75;;
70800;SDS011;59616;52.170;5.386;2022-10-31T08:22:14;21.58;;;9.02;;
70800;SDS011;59616;52.170;5.386;2022-10-31T08:24:42;17.90;;;8.35;;
70800;SDS011;59616;52.170;5.386;2022-10-31T08:27:09;20.45;;;8.65;;
70800;SDS011;59616;52.170;5.386;2022-10-31T08:29:38;19.27;;;8.98;;
70800;SDS011;59616;52.170;5.386;2022-10-31T08:32:05;18.48;;;8.77;;
70800;SDS011;59616;52.170;5.386;2022-10-31T08:34:51;19.30;;;8.77;;
70800;SDS011;59616;52.170;5.386;2022-10-31T08:37:36;21.98;;;9.35;;
70800;SDS011;59616;52.170;5.386;2022-10-31T08:40:04;19.65;;;8.88;;
70800;SDS011;59616;52.170;5.386;2022-10-31T08:42:33;20.80;;;9.70;;
70800;SDS011;59616;52.170;5.386;2022-10-31T08:45:01;19.45;;;9.10;;
70800;SDS011;59616;52.170;5.386;2022-10-31T08:47:30;22.25;;;10.07;;
70800;SDS011;59616;52.170;5.386;2022-10-31T08:49:57;23.40;;;10.13;;
70800;SDS011;59616;52.170;5.386;2022-10-31T08:52:24;19.38;;;9.45;;
70800;SDS011;59616;52.170;5.386;2022-10-31T08:55:12;22.55;;;10.15;;
70800;SDS011;59616;52.170;5.386;2022-10-31T08:57:58;25.40;;;10.30;;
70800;SDS011;59616;52.170;5.386;2022-10-31T09:00:34;20.00;;;9.77;;
70800;SDS011;59616;52.170;5.386;2022-10-31T09:03:12;23.13;;;10.35;;
70800;SDS011;59616;52.170;5.386;2022-10-31T09:05:41;23.20;;;10.75;;
70800;SDS011;59616;52.170;5.386;2022-10-31T09:08:10;23.55;;;10.73;;
70800;SDS011;59616;52.170;5.386;2022-10-31T09:10:43;24.23;;;10.45;;
70800;SDS011;59616;52.170;5.386;2022-10-31T09:13:16;24.52;;;10.52;;
70800;SDS011;59616;52.170;5.386;2022-10-31T09:16:03;23.63;;;11.05;;
70800;SDS011;59616;52.170;5.386;2022-10-31T09:18:30;23.27;;;10.60;;
70800;SDS011;59616;52.170;5.386;2022-10-31T09:20:58;25.73;;;11.65;;
70800;SDS011;59616;52.170;5.386;2022-10-31T09:23:28;29.30;;;11.50;;
70800;SDS011;59616;52.170;5.386;2022-10-31T09:25:55;27.35;;;11.93;;
70800;SDS011;59616;52.170;5.386;2022-10-31T09:28:44;25.25;;;12.02;;
70800;SDS011;59616;52.170;5.386;2022-10-31T09:31:14;25.10;;;11.93;;
70800;SDS011;59616;52.170;5.386;2022-10-31T09:33:49;25.05;;;11.82;;
70800;SDS011;59616;52.170;5.386;2022-10-31T09:36:39;26.40;;;11.77;;
70800;SDS011;59616;52.170;5.386;2022-10-31T09:39:11;29.17;;;12.40;;
70800;SDS011;59616;52.170;5.386;2022-10-31T09:44:58;25.17;;;11.52;;
70800;SDS011;59616;52.170;5.386;2022-10-31T09:51:03;24.50;;;10.85;;
70800;SDS011;59616;52.170;5.386;2022-10-31T09:53:41;25.58;;;11.38;;
70800;SDS011;59616;52.170;5.386;2022-10-31T09:56:17;25.90;;;11.98;;
70800;SDS011;59616;52.170;5.386;2022-10-31T09:58:47;28.50;;;11.52;;
70800;SDS011;59616;52.170;5.386;2022-10-31T10:01:25;26.10;;;12.65;;
70800;SDS011;59616;52.170;5.386;2022-10-31T10:04:30;27.60;;;13.23;;
70800;SDS011;59616;52.170;5.386;2022-10-31T10:07:06;26.30;;;12.55;;
70800;SDS011;59616;52.170;5.386;2022-10-31T10:09:59;26.75;;;12.27;;
70800;SDS011;59616;52.170;5.386;2022-10-31T10:15:23;25.98;;;13.18;;
70800;SDS011;59616;52.170;5.386;2022-10-31T10:18:01;26.80;;;11.82;;
70800;SDS011;59616;52.170;5.386;2022-10-31T10:23:21;27.58;;;11.88;;
70800;SDS011;59616;52.170;5.386;2022-10-31T10:25:53;25.23;;;11.43;;
70800;SDS011;59616;52.170;5.386;2022-10-31T10:31:11;25.15;;;11.63;;
70800;SDS011;59616;52.170;5.386;2022-10-31T10:33:45;25.05;;;11.25;;
70800;SDS011;59616;52.170;5.386;2022-10-31T10:36:16;28.70;;;11.30;;
70800;SDS011;59616;52.170;5.386;2022-10-31T10:38:54;25.92;;;11.07;;
70800;SDS011;59616;52.170;5.386;2022-10-31T10:41:31;24.80;;;11.43;;
70800;SDS011;59616;52.170;5.386;2022-10-31T10:44:00;21.77;;;10.63;;
70800;SDS011;59616;52.170;5.386;2022-10-31T10:46:34;22.23;;;10.00;;
70800;SDS011;59616;52.170;5.386;2022-10-31T10:50:08;23.63;;;9.93;;
70800;SDS011;59616;52.170;5.386;2022-10-31T10:52:27;21.50;;;9.93;;
70800;SDS011;59616;52.170;5.386;2022-10-31T10:57:52;24.08;;;10.15;;
70800;SDS011;59616;52.170;5.386;2022-10-31T11:00:22;22.35;;;10.23;;
70800;SDS011;59616;52.170;5.386;2022-10-31T11:02:50;21.65;;;10.07;;
70800;SDS011;59616;52.170;5.386;2022-10-31T11:05:23;22.80;;;10.65;;
70800;SDS011;59616;52.170;5.386;2022-10-31T11:07:51;23.48;;;9.90;;
70800;SDS011;59616;52.170;5.386;2022-10-31T11:10:18;21.95;;;9.25;;
70800;SDS011;59616;52.170;5.386;2022-10-31T11:12:58;22.17;;;9.77;;
70800;SDS011;59616;52.170;5.386;2022-10-31T11:15:26;25.95;;;9.88;;
70800;SDS011;59616;52.170;5.386;2022-10-31T11:17:54;23.02;;;9.40;;
70800;SDS011;59616;52.170;5.386;2022-10-31T11:20:29;25.20;;;9.48;;
70800;SDS011;59616;52.170;5.386;2022-10-31T11:23:02;23.63;;;9.20;;
70800;SDS011;59616;52.170;5.386;2022-10-31T11:25:31;22.85;;;9.40;;
70800;SDS011;59616;52.170;5.386;2022-10-31T11:27:59;24.13;;;8.90;;
70800;SDS011;59616;52.170;5.386;2022-10-31T11:30:26;24.23;;;8.13;;
70800;SDS011;59616;52.170;5.386;2022-10-31T11:32:54;24.05;;;8.48;;
70800;SDS011;59616;52.170;5.386;2022-10-31T11:35:22;21.42;;;8.65;;
70800;SDS011;59616;52.170;5.386;2022-10-31T11:37:50;24.45;;;9.32;;
70800;SDS011;59616;52.170;5.386;2022-10-31T11:40:21;24.85;;;9.02;;
70800;SDS011;59616;52.170;5.386;2022-10-31T11:42:48;20.73;;;8.85;;
70800;SDS011;59616;52.170;5.386;2022-10-31T11:45:17;25.25;;;9.57;;
70800;SDS011;59616;52.170;5.386;2022-10-31T11:47:56;28.10;;;9.63;;
70800;SDS011;59616;52.170;5.386;2022-10-31T11:50:39;26.63;;;9.73;;
70800;SDS011;59616;52.170;5.386;2022-10-31T11:53:14;24.50;;;9.77;;
70800;SDS011;59616;52.170;5.386;2022-10-31T11:55:41;27.00;;;10.95;;
70800;SDS011;59616;52.170;5.386;2022-10-31T11:58:22;28.15;;;10.30;;
70800;SDS011;59616;52.170;5.386;2022-10-31T12:00:50;28.17;;;10.65;;
70800;SDS011;59616;52.170;5.386;2022-10-31T12:08:33;31.58;;;10.77;;
70800;SDS011;59616;52.170;5.386;2022-10-31T12:16:34;33.65;;;11.13;;
70800;SDS011;59616;52.170;5.386;2022-10-31T12:19:04;29.88;;;11.13;;
70800;SDS011;59616;52.170;5.386;2022-10-31T12:27:24;35.58;;;11.75;;
70800;SDS011;59616;52.170;5.386;2022-10-31T12:29:58;29.00;;;10.65;;
70800;SDS011;59616;52.170;5.386;2022-10-31T12:43:16;33.50;;;12.43;;
70800;SDS011;59616;52.170;5.386;2022-10-31T12:45:51;30.42;;;11.63;;
70800;SDS011;59616;52.170;5.386;2022-10-31T12:48:39;34.53;;;12.25;;
70800;SDS011;59616;52.170;5.386;2022-10-31T12:59:36;30.83;;;10.90;;
70800;SDS011;59616;52.170;5.386;2022-10-31T13:07:30;28.50;;;10.27;;
70800;SDS011;59616;52.170;5.386;2022-10-31T13:10:10;34.05;;;11.10;;
70800;SDS011;59616;52.170;5.386;2022-10-31T13:12:41;29.98;;;11.40;;
70800;SDS011;59616;52.170;5.386;2022-10-31T13:15:14;29.30;;;11.25;;
70800;SDS011;59616;52.170;5.386;2022-10-31T13:17:44;34.53;;;11.43;;
70800;SDS011;59616;52.170;5.386;2022-10-31T13:20:30;27.02;;;11.48;;
70800;SDS011;59616;52.170;5.386;2022-10-31T13:26:22;31.98;;;10.75;;
70800;SDS011;59616;52.170;5.386;2022-10-31T13:29:11;31.90;;;12.13;;
70800;SDS011;59616;52.170;5.386;2022-10-31T13:31:59;32.05;;;12.98;;
70800;SDS011;59616;52.170;5.386;2022-10-31T13:34:29;33.70;;;12.38;;
70800;SDS011;59616;52.170;5.386;2022-10-31T13:36:59;30.13;;;11.00;;
70800;SDS011;59616;52.170;5.386;2022-10-31T13:45:12;35.30;;;11.90;;
70800;SDS011;59616;52.170;5.386;2022-10-31T13:47:40;35.78;;;13.35;;
70800;SDS011;59616;52.170;5.386;2022-10-31T13:50:19;44.10;;;12.73;;
70800;SDS011;59616;52.170;5.386;2022-10-31T13:52:46;36.05;;;12.68;;
70800;SDS011;59616;52.170;5.386;2022-10-31T13:58:05;32.35;;;11.93;;
70800;SDS011;59616;52.170;5.386;2022-10-31T14:00:32;38.95;;;12.63;;
70800;SDS011;59616;52.170;5.386;2022-10-31T14:03:01;34.78;;;12.82;;
70800;SDS011;59616;52.170;5.386;2022-10-31T14:05:32;36.78;;;13.73;;
70800;SDS011;59616;52.170;5.386;2022-10-31T14:08:04;33.40;;;13.18;;
70800;SDS011;59616;52.170;5.386;2022-10-31T14:10:38;29.85;;;12.75;;
70800;SDS011;59616;52.170;5.386;2022-10-31T14:13:32;30.70;;;12.65;;
70800;SDS011;59616;52.170;5.386;2022-10-31T14:16:01;31.13;;;12.88;;
70800;SDS011;59616;52.170;5.386;2022-10-31T14:18:33;31.70;;;13.10;;
70800;SDS011;59616;52.170;5.386;2022-10-31T14:21:01;33.33;;;12.77;;
70800;SDS011;59616;52.170;5.386;2022-10-31T14:26:16;32.33;;;12.85;;
70800;SDS011;59616;52.170;5.386;2022-10-31T14:28:44;34.53;;;12.73;;
70800;SDS011;59616;52.170;5.386;2022-10-31T14:31:31;32.42;;;13.43;;
70800;SDS011;59616;52.170;5.386;2022-10-31T14:36:56;33.45;;;13.13;;
70800;SDS011;59616;52.170;5.386;2022-10-31T14:39:29;33.25;;;13.00;;
70800;SDS011;59616;52.170;5.386;2022-10-31T14:47:22;36.65;;;13.02;;
70800;SDS011;59616;52.170;5.386;2022-10-31T14:52:34;34.58;;;13.13;;
70800;SDS011;59616;52.170;5.386;2022-10-31T14:55:03;39.75;;;13.38;;
70800;SDS011;59616;52.170;5.386;2022-10-31T14:57:32;33.70;;;13.13;;
70800;SDS011;59616;52.170;5.386;2022-10-31T15:00:12;34.75;;;13.48;;
70800;SDS011;59616;52.170;5.386;2022-10-31T15:02:49;36.60;;;13.77;;
70800;SDS011;59616;52.170;5.386;2022-10-31T15:05:28;34.53;;;13.48;;
70800;SDS011;59616;52.170;5.386;2022-10-31T15:07:58;40.72;;;13.35;;
70800;SDS011;59616;52.170;5.386;2022-10-31T15:10:26;36.13;;;13.68;;
70800;SDS011;59616;52.170;5.386;2022-10-31T15:15:34;35.80;;;12.68;;
70800;SDS011;59616;52.170;5.386;2022-10-31T15:18:03;37.42;;;13.52;;
70800;SDS011;59616;52.170;5.386;2022-10-31T15:20:35;29.77;;;12.45;;
70800;SDS011;59616;52.170;5.386;2022-10-31T15:23:03;35.72;;;12.95;;
70800;SDS011;59616;52.170;5.386;2022-10-31T15:25:32;37.15;;;14.07;;
70800;SDS011;59616;52.170;5.386;2022-10-31T15:28:00;37.25;;;13.80;;
70800;SDS011;59616;52.170;5.386;2022-10-31T15:30:28;35.85;;;13.13;;
70800;SDS011;59616;52.170;5.386;2022-10-31T15:32:55;32.92;;;12.65;;
70800;SDS011;59616;52.170;5.386;2022-10-31T15:35:28;32.38;;;13.35;;
70800;SDS011;59616;52.170;5.386;2022-10-31T15:37:56;35.63;;;13.82;;
70800;SDS011;59616;52.170;5.386;2022-10-31T15:40:25;34.10;;;13.15;;
70800;SDS011;59616;52.170;5.386;2022-10-31T15:45:21;35.67;;;13.02;;
70800;SDS011;59616;52.170;5.386;2022-10-31T15:47:57;34.33;;;13.32;;
70800;SDS011;59616;52.170;5.386;2022-10-31T15:50:27;34.92;;;12.43;;
70800;SDS011;59616;52.170;5.386;2022-10-31T15:52:55;32.50;;;13.30;;
70800;SDS011;59616;52.170;5.386;2022-10-31T15:55:26;33.95;;;12.57;;
70800;SDS011;59616;52.170;5.386;2022-10-31T15:57:56;37.60;;;13.27;;
70800;SDS011;59616;52.170;5.386;2022-10-31T16:00:31;35.78;;;13.75;;
70800;SDS011;59616;52.170;5.386;2022-10-31T16:05:37;32.03;;;12.88;;
70800;SDS011;59616;52.170;5.386;2022-10-31T16:08:04;32.83;;;13.18;;
70800;SDS011;59616;52.170;5.386;2022-10-31T16:10:32;37.40;;;14.02;;
70800;SDS011;59616;52.170;5.386;2022-10-31T16:13:01;34.20;;;13.00;;
70800;SDS011;59616;52.170;5.386;2022-10-31T16:15:29;30.00;;;12.60;;
70800;SDS011;59616;52.170;5.386;2022-10-31T16:17:56;35.03;;;12.82;;
70800;SDS011;59616;52.170;5.386;2022-10-31T16:20:27;34.45;;;13.30;;
70800;SDS011;59616;52.170;5.386;2022-10-31T16:22:58;28.98;;;11.93;;
70800;SDS011;59616;52.170;5.386;2022-10-31T16:25:34;30.15;;;11.05;;
70800;SDS011;59616;52.170;5.386;2022-10-31T16:28:12;34.72;;;12.18;;
70800;SDS011;59616;52.170;5.386;2022-10-31T16:30:42;32.67;;;12.23;;
70800;SDS011;59616;52.170;5.386;2022-10-31T16:35:47;30.55;;;12.05;;
70800;SDS011;59616;52.170;5.386;2022-10-31T16:38:15;32.15;;;12.00;;
70800;SDS011;59616;52.170;5.386;2022-10-31T16:40:42;34.53;;;12.05;;
70800;SDS011;59616;52.170;5.386;2022-10-31T16:43:12;34.40;;;12.00;;
70800;SDS011;59616;52.170;5.386;2022-10-31T16:45:44;33.05;;;12.43;;
70800;SDS011;59616;52.170;5.386;2022-10-31T16:48:13;39.20;;;12.38;;
70800;SDS011;59616;52.170;5.386;2022-10-31T16:50:41;36.72;;;12.25;;
70800;SDS011;59616;52.170;5.386;2022-10-31T16:53:09;30.98;;;12.40;;
70800;SDS011;59616;52.170;5.386;2022-10-31T16:56:02;32.72;;;12.00;;
70800;SDS011;59616;52.170;5.386;2022-10-31T16:58:28;30.83;;;11.75;;
70800;SDS011;59616;52.170;5.386;2022-10-31T17:00:56;29.92;;;11.35;;
70800;SDS011;59616;52.170;5.386;2022-10-31T17:03:23;30.63;;;11.63;;
70800;SDS011;59616;52.170;5.386;2022-10-31T17:05:50;32.65;;;11.93;;
70800;SDS011;59616;52.170;5.386;2022-10-31T17:08:17;32.15;;;11.98;;